Kezdőlap
METAR-TAF:

METAR-TAF

Repülőterek :

Carroll, Iowa, Amerikai Egyesült Államok

földrajzi szélesség: 42-03N, földrajzi hosszúság: 094-47W, magasság: 375 m

Jelenlegi meteorológiai megfigyelések

A jelentés 13 perccel ezelõtt készült, 11:55 UTC
Keleti szél 6 kt
Hőmérséklet 20°C
Páratartalom 73%
Légköri nyomás 1018 hPa
Látótávolság: 16.1 km
Szakadozott felhőzet 3700 lábon
Borult 6000 lábon

METAR: KCIN 061155Z AUTO 09006KT 10SM BKN037 OVC060 20/15 A3006 RMK AO2

Idő: 07:08 (12:08 UTC)


TAF: hiányzik

Meteorológiai megfigyelések és előrejelzések több, mint 4000 repülőtéren (METAR és TAF jelentéseket).

A térképen piros és sárga pontok jelzik az elérhető meteorológiai állomásokat.

Mozgassa az egeret a pont fölött, hogy megjelenjen az állomás neve.

Azután kattintson az időjárási megfigyelések és előrejelzések megtekintéséhez.

A térkép megváltoztatása: kattintson a fekete keresztel jelölt zöld gombra ráközelítéshez, a vonallal jelölt zöld gombra távolításhoz, vagy a zöld nyilakra a szomszédos térképek eléréséhez.


METAR-TAF: